Saugatuck, MI (49453)

12:14 PM EST on February 11, 2016 (GMT -0500)
Douglas, MI | | Change Station
CLOSE
Current Station
Personal Weather Station
Location: Douglas, MI
Elevation: 597 ft
Nearby Weather Stations

Elev 597 ft 42.64 °N, 86.23 °W | Updated 4 minutes ago

Overcast
Overcast
18.8 °F
Feels Like 19 °F
N
0.0
Wind Variable Wind from ENE
Gusts 0.0 mph

Today
High -- | Low -- °F
--% Chance of Precip.
Yesterday
High -- | Low -- °F
Precip. -- in
Pressure 30.29 in
Visibility 10.0 miles
Clouds Few 3300 ft
Overcast 4200 ft
Windchill 19 °F
Dew Point 16 °F
Humidity 88%
Rainfall 0.00 in
Snow Depth Not available.
7:47 AM 6:10 PM
Waxing Crescent, 13% visible
METAR KBIV 111653Z AUTO VRB05KT 10SM FEW033 OVC042 M06/M14 A3025 RMK AO2 SLP256 T10611139
Pressure 30.29 in
Visibility 10.0 miles
Clouds Few 3300 ft
Overcast 4200 ft
Windchill 19 °F
Dew Point 16 °F
Humidity 88%
Rainfall 0.00 in
Snow Depth Not available.
7:47 AM 6:10 PM
Waxing Crescent, 13% visible
METAR KBIV 111653Z AUTO VRB05KT 10SM FEW033 OVC042 M06/M14 A3025 RMK AO2 SLP256 T10611139

10-Day Weather Forecast

Almanac

Astronomy

Feb. 11, 2016 Rise Set
Actual Time
Civil Twilight
Nautical Twilight
Astronomical Twilight
Moon
Length of Visible Light
Length of Day
Tomorrow will be .
, % of the Moon is Illuminated

Today's Extremes

State Highs State Lows

Community

WunderPhotos

Upload Photos

1,892,104 photos uploaded!

WunderBlog® & News

Nearby

Air Quality

  Air Quality AQ Index Pollutant
Not available.

Snow Depth

Station Depth Elevation

Earthquake Activity

City Distance Mag. Time & Date
Minimum magnitude displayed is 2.5.

Coastal Water Temperatures

Place Temperature

Stations

Nearby Weather Stations

Station Location Temp. Windchill Dew Point Humidity Wind Precip. Elev Updated Type
                   

Watches & Warnings

There are currently no watches in effect.